Time;durP1;ratioP1;P1;durP2;ratioP2;P2;SDS_P1;SDS_P2;PMS_P1;PMS_P2;Temp;Humidity;BMP_temperature;BMP_pressure;BME280_temperature;BME280_humidity;BME280_pressure;Samples;Min_cycle;Max_cycle;Signal;HPM_P1;HPM_P2
2022/07/15 00:01:50;;;;;;;2.25;1.95;;;;;;;21.30;52.83;95932.50;5083500;28;20074;-66
2022/07/15 00:04:16;;;;;;;1.95;1.85;;;;;;;21.28;53.76;95929.22;5091025;28;20058;-65
2022/07/15 00:06:41;;;;;;;1.58;1.48;;;;;;;21.26;54.30;95937.47;5088624;28;20063;-66
2022/07/15 00:09:07;;;;;;;2.05;1.83;;;;;;;21.29;53.96;95930.84;5093106;28;20082;-66
2022/07/15 00:11:33;;;;;;;2.22;2.13;;;;;;;21.23;52.69;95931.69;5091936;28;20028;-66
2022/07/15 00:13:58;;;;;;;1.98;1.88;;;;;;;21.18;54.20;95932.28;5091165;28;20050;-66
2022/07/15 00:16:24;;;;;;;2.10;1.90;;;;;;;21.15;54.19;95938.03;5091205;28;20028;-66
2022/07/15 00:18:49;;;;;;;3.22;2.13;;;;;;;21.06;54.27;95940.09;5090912;28;20045;-66
2022/07/15 00:21:15;;;;;;;3.10;2.90;;;;;;;21.05;53.88;95941.13;5092996;28;20042;-66
2022/07/15 00:23:40;;;;;;;6.03;2.70;;;;;;;21.08;54.06;95945.25;5092369;28;20107;-66
2022/07/15 00:26:06;;;;;;;3.05;2.85;;;;;;;20.98;54.63;95940.28;5076115;28;20421;-66
2022/07/15 00:28:31;;;;;;;3.00;2.50;;;;;;;20.99;54.63;95940.06;5095826;28;20036;-66
2022/07/15 00:30:57;;;;;;;2.70;2.53;;;;;;;21.12;53.35;95939.28;5093152;28;20035;-66
2022/07/15 00:33:22;;;;;;;1.92;1.83;;;;;;;21.14;53.17;95929.22;5093734;28;20046;-66
2022/07/15 00:35:49;;;;;;;1.90;1.80;;;;;;;21.06;54.13;95937.41;5094019;28;20107;-65
2022/07/15 00:38:15;;;;;;;2.25;2.15;;;;;;;21.01;53.89;95931.84;5091537;28;20120;-66
2022/07/15 00:40:42;;;;;;;2.45;2.25;;;;;;;21.03;54.27;95935.97;5089426;28;20028;-66
2022/07/15 00:43:08;;;;;;;2.75;2.55;;;;;;;21.06;54.01;95934.72;5093853;28;20097;-66
2022/07/15 00:45:33;;;;;;;3.85;3.00;;;;;;;21.04;53.23;95929.59;5088792;28;20479;-66
2022/07/15 00:47:58;;;;;;;3.20;2.90;;;;;;;21.01;53.40;95930.00;5094209;28;20110;-66
2022/07/15 00:50:28;;;;;;;3.17;2.88;;;;;;;21.01;53.94;95926.50;5091332;28;20065;-66
2022/07/15 00:52:57;;;;;;;3.08;2.88;;;;;;;20.97;54.67;95923.38;5088979;28;20020;-66
2022/07/15 00:55:24;;;;;;;2.83;2.63;;;;;;;20.92;55.43;95925.84;5087417;28;20076;-66
2022/07/15 00:57:55;;;;;;;5.38;2.97;;;;;;;20.87;55.12;95921.09;5087149;28;20130;-66
2022/07/15 01:00:21;;;;;;;2.67;2.47;;;;;;;20.87;54.67;95918.41;5087768;28;20024;-66
2022/07/15 01:02:50;;;;;;;2.72;2.53;;;;;;;20.78;54.25;95916.94;5090457;28;20027;-66
2022/07/15 01:05:18;;;;;;;2.65;2.40;;;;;;;20.72;56.04;95918.53;5090162;28;20028;-65
2022/07/15 01:07:44;;;;;;;3.08;2.50;;;;;;;20.68;56.62;95916.50;5091196;28;20368;-66
2022/07/15 01:10:10;;;;;;;2.17;2.08;;;;;;;20.66;57.46;95913.16;5092689;28;20049;-66
2022/07/15 01:12:42;;;;;;;2.40;2.30;;;;;;;20.65;57.78;95919.53;5090675;28;20039;-66
2022/07/15 01:15:08;;;;;;;1.92;1.83;;;;;;;20.61;56.93;95917.28;5090205;28;20027;-66
2022/07/15 01:17:34;;;;;;;2.30;2.10;;;;;;;20.59;57.22;95913.97;5092707;28;20210;-66
2022/07/15 01:19:59;;;;;;;2.85;2.40;;;;;;;20.56;57.24;95917.06;5088001;28;20480;-65
2022/07/15 01:22:25;;;;;;;2.40;2.20;;;;;;;20.56;56.96;95914.38;5088911;28;20027;-65
2022/07/15 01:24:52;;;;;;;2.28;2.15;;;;;;;20.52;58.62;95920.31;5089877;28;20035;-65
2022/07/15 01:27:18;;;;;;;2.40;2.20;;;;;;;20.49;58.52;95918.88;5091109;28;20050;-65
2022/07/15 01:29:43;;;;;;;2.42;2.33;;;;;;;20.49;58.93;95921.56;5073364;28;20539;-66
2022/07/15 01:32:09;;;;;;;2.22;2.13;;;;;;;20.48;58.80;95925.25;5096847;28;20024;-65
2022/07/15 01:34:34;;;;;;;2.67;2.47;;;;;;;20.46;58.42;95925.44;5090324;28;20102;-66
2022/07/15 01:37:00;;;;;;;6.80;3.58;;;;;;;20.43;58.22;95925.84;5096427;28;20024;-65
2022/07/15 01:39:25;;;;;;;2.78;2.50;;;;;;;20.42;57.58;95926.03;5089575;28;20016;-65
2022/07/15 01:41:51;;;;;;;3.25;2.80;;;;;;;20.42;58.28;95926.03;5089534;28;20008;-64
2022/07/15 01:44:16;;;;;;;3.88;1.88;;;;;;;20.43;57.06;95933.03;5090165;28;20399;-65
2022/07/15 01:46:41;;;;;;;2.20;2.00;;;;;;;20.32;59.13;95926.38;5089417;28;20036;-66
2022/07/15 01:49:25;;;;;;;2.35;2.10;;;;;;;20.29;58.25;95927.63;5089074;28;20017;-64
2022/07/15 01:51:52;;;;;;;2.55;2.35;;;;;;;20.25;59.31;95929.06;5090121;28;20115;-65
2022/07/15 01:54:17;;;;;;;2.58;2.42;;;;;;;20.26;59.84;95932.53;5090453;28;20028;-65
2022/07/15 01:56:43;;;;;;;2.55;2.30;;;;;;;20.27;59.29;95935.03;5090337;28;20104;-65
2022/07/15 01:59:09;;;;;;;2.90;2.70;;;;;;;20.28;58.73;95930.50;5088351;28;20075;-66
2022/07/15 02:01:35;;;;;;;2.38;2.28;;;;;;;20.28;60.47;95927.81;5089166;28;20082;-65
2022/07/15 02:04:01;;;;;;;3.67;2.63;;;;;;;20.24;58.78;95930.06;5089624;28;20021;-65
2022/07/15 02:06:26;;;;;;;2.50;2.40;;;;;;;20.23;60.86;95916.91;5089643;28;20031;-66
2022/07/15 02:08:52;;;;;;;3.50;3.30;;;;;;;20.22;59.74;95918.72;5089139;28;20024;-65
2022/07/15 02:11:17;;;;;;;3.28;2.97;;;;;;;20.26;61.25;95917.34;5089720;28;20069;-65
2022/07/15 02:13:43;;;;;;;3.05;2.90;;;;;;;20.24;61.01;95919.38;5085477;28;20032;-65
2022/07/15 02:16:08;;;;;;;3.45;2.22;;;;;;;20.18;59.30;95925.50;5090201;28;20023;-65
2022/07/15 02:18:34;;;;;;;2.30;2.20;;;;;;;20.12;59.74;95915.59;5085179;28;20132;-65
2022/07/15 02:21:00;;;;;;;3.20;2.17;;;;;;;20.12;60.18;95923.63;5091818;28;20024;-65
2022/07/15 02:23:26;;;;;;;2.10;2.00;;;;;;;20.14;60.96;95926.91;5088113;28;20509;-65
2022/07/15 02:25:51;;;;;;;2.88;2.60;;;;;;;20.17;60.71;95923.84;5085284;28;20020;-65
2022/07/15 02:28:17;;;;;;;2.53;2.40;;;;;;;20.19;60.32;95927.16;5086804;28;20525;-66
2022/07/15 02:30:43;;;;;;;2.35;2.22;;;;;;;20.23;59.40;95922.25;5087918;28;20055;-65
2022/07/15 02:33:10;;;;;;;2.50;2.30;;;;;;;20.24;60.32;95930.06;5092901;28;21008;-65
2022/07/15 02:35:37;;;;;;;2.50;2.30;;;;;;;20.21;59.64;95919.75;5086747;28;20020;-66
2022/07/15 02:38:03;;;;;;;2.20;2.10;;;;;;;20.26;58.72;95927.19;5091370;28;20430;-64
2022/07/15 02:40:30;;;;;;;4.97;1.77;;;;;;;20.28;59.63;95925.97;5089586;28;20736;-65
2022/07/15 02:42:58;;;;;;;5.60;2.15;;;;;;;20.26;60.04;95929.88;5090902;28;20089;-65
2022/07/15 02:45:26;;;;;;;2.22;2.13;;;;;;;20.21;60.16;95930.44;5083693;28;20031;-65
2022/07/15 02:47:51;;;;;;;2.15;1.98;;;;;;;20.25;59.38;95926.38;5084301;28;20058;-66
2022/07/15 02:50:18;;;;;;;2.03;1.92;;;;;;;20.24;58.95;95919.38;5092193;28;20036;-65
2022/07/15 02:52:43;;;;;;;2.67;2.30;;;;;;;20.24;58.99;95923.88;5086501;28;20107;-65
2022/07/15 02:55:10;;;;;;;2.42;2.22;;;;;;;20.20;59.10;95923.44;5087970;28;20161;-65
2022/07/15 02:57:37;;;;;;;2.25;2.15;;;;;;;20.20;59.65;95928.78;5084827;28;20044;-65
2022/07/15 03:00:05;;;;;;;2.63;2.33;;;;;;;20.18;59.75;95918.31;5072793;28;20081;-65
2022/07/15 03:02:30;;;;;;;2.88;2.05;;;;;;;20.17;60.24;95924.69;5084999;28;20024;-65
2022/07/15 03:04:56;;;;;;;5.05;2.15;;;;;;;20.09;60.61;95922.16;5087964;28;20025;-66
2022/07/15 03:07:21;;;;;;;3.03;1.88;;;;;;;20.00;60.48;95921.47;5086203;28;20024;-66
2022/07/15 03:09:47;;;;;;;1.88;1.77;;;;;;;20.07;60.44;95926.06;5089547;28;20035;-65
2022/07/15 03:12:12;;;;;;;1.75;1.65;;;;;;;20.06;60.34;95921.75;5089667;28;20107;-65
2022/07/15 03:14:37;;;;;;;2.42;2.22;;;;;;;20.04;60.08;95922.75;5087478;28;20028;-66
2022/07/15 03:17:03;;;;;;;2.85;2.13;;;;;;;20.01;62.88;95925.00;5090846;28;20039;-66
2022/07/15 03:19:28;;;;;;;2.00;1.90;;;;;;;19.96;62.41;95922.09;5089528;28;20039;-66
2022/07/15 03:21:54;;;;;;;3.00;2.00;;;;;;;19.94;62.03;95926.81;5085489;28;20024;-65
2022/07/15 03:24:19;;;;;;;2.92;2.35;;;;;;;19.96;64.35;95928.25;5087620;28;20032;-65
2022/07/15 03:26:44;;;;;;;1.90;1.80;;;;;;;19.92;62.68;95926.19;5089657;28;20028;-65
2022/07/15 03:29:10;;;;;;;2.55;1.90;;;;;;;19.88;61.88;95929.19;5087525;28;20057;-65
2022/07/15 03:31:36;;;;;;;2.28;2.17;;;;;;;19.94;61.90;95932.97;5089242;28;20032;-66
2022/07/15 03:34:01;;;;;;;2.13;2.03;;;;;;;19.94;61.74;95934.81;5089125;28;20019;-65
2022/07/15 03:36:26;;;;;;;4.78;2.00;;;;;;;19.90;64.56;95932.50;5087436;28;20061;-66
2022/07/15 03:38:52;;;;;;;2.35;2.15;;;;;;;19.90;64.88;95931.66;5083416;28;20100;-66
2022/07/15 03:41:18;;;;;;;2.67;2.03;;;;;;;19.92;64.34;95928.84;5088847;28;20372;-66
2022/07/15 03:43:44;;;;;;;2.00;1.80;;;;;;;19.88;63.53;95931.03;5088886;28;20024;-65
2022/07/15 03:46:09;;;;;;;1.98;1.88;;;;;;;19.81;62.26;95927.50;5087453;28;20379;-66
2022/07/15 03:48:35;;;;;;;1.73;1.65;;;;;;;19.86;61.80;95933.09;5089261;28;20035;-65
2022/07/15 03:51:00;;;;;;;2.30;2.10;;;;;;;19.85;63.70;95934.09;5086065;28;20032;-65
2022/07/15 03:53:25;;;;;;;3.60;1.92;;;;;;;19.77;63.20;95932.41;5088824;28;20032;-66
2022/07/15 03:55:51;;;;;;;2.28;2.17;;;;;;;19.73;63.61;95934.63;5087486;28;20028;-65
2022/07/15 03:58:17;;;;;;;1.92;1.77;;;;;;;19.67;64.01;95930.06;5092086;28;20057;-66
2022/07/15 04:00:42;;;;;;;4.47;2.20;;;;;;;19.56;64.12;95938.59;5091821;28;20036;-66
2022/07/15 04:03:07;;;;;;;2.55;2.22;;;;;;;19.58;63.18;95936.59;5095121;28;20024;-65
2022/07/15 04:05:33;;;;;;;3.58;2.00;;;;;;;19.58;63.14;95936.59;5092662;28;20024;-65
2022/07/15 04:07:58;;;;;;;2.00;1.90;;;;;;;19.43;63.84;95940.16;5094498;28;20482;-64
2022/07/15 04:10:23;;;;;;;2.13;1.92;;;;;;;19.32;63.89;95937.97;5092348;28;20538;-65
2022/07/15 04:12:49;;;;;;;2.42;2.22;;;;;;;19.30;64.66;95940.00;5092461;28;20475;-65
2022/07/15 04:15:15;;;;;;;4.85;2.05;;;;;;;19.24;65.54;95946.13;5090538;28;20024;-65
2022/07/15 04:17:41;;;;;;;2.10;2.00;;;;;;;19.15;65.38;95948.91;5089654;28;20028;-65
2022/07/15 04:20:08;;;;;;;3.75;2.15;;;;;;;19.15;65.00;95946.25;5089403;28;20035;-65
2022/07/15 04:22:41;;;;;;;7.55;2.90;;;;;;;19.27;65.07;95945.72;5087375;28;20459;-65
2022/07/15 04:25:08;;;;;;;8.60;5.05;;;;;;;19.24;65.01;95946.13;5092550;28;20475;-65
2022/07/15 04:27:34;;;;;;;3.88;2.60;;;;;;;19.28;64.69;95947.38;5085147;28;20047;-65
2022/07/15 04:29:59;;;;;;;2.50;2.30;;;;;;;19.31;64.56;95949.66;5086886;28;20051;-65
2022/07/15 04:32:26;;;;;;;2.55;2.35;;;;;;;19.27;66.92;95951.06;5089320;28;20027;-65
2022/07/15 04:34:52;;;;;;;2.40;2.30;;;;;;;19.21;65.24;95946.50;5093075;28;20024;-66
2022/07/15 04:37:18;;;;;;;3.00;1.98;;;;;;;19.18;65.25;95953.88;5089374;28;20089;-65
2022/07/15 04:39:43;;;;;;;1.98;1.83;;;;;;;19.17;64.98;95949.56;5086200;28;20060;-65
2022/07/15 04:42:08;;;;;;;4.75;2.40;;;;;;;19.21;65.24;95952.66;5090137;28;20027;-66
2022/07/15 04:44:34;;;;;;;2.88;2.00;;;;;;;19.20;65.87;95945.66;5093869;28;20028;-65
2022/07/15 04:46:59;;;;;;;3.10;2.00;;;;;;;19.23;65.13;95949.81;5092434;28;20028;-65
2022/07/15 04:52:09;;;;;;;2.17;2.03;;;;;;;19.26;64.98;95952.09;5088614;28;20028;-65
2022/07/15 04:54:34;;;;;;;2.20;2.00;;;;;;;19.21;65.70;95949.16;5091904;28;20024;-65
2022/07/15 04:56:59;;;;;;;1.65;1.65;;;;;;;19.18;65.81;95947.69;5090584;28;20073;-65
2022/07/15 04:59:26;;;;;;;1.85;1.75;;;;;;;19.16;65.73;95939.91;5087910;28;20510;-65
2022/07/15 05:01:52;;;;;;;2.30;2.10;;;;;;;19.17;65.71;95952.22;5091311;28;20054;-65
2022/07/15 05:04:17;;;;;;;1.90;1.80;;;;;;;19.18;66.15;95943.19;5090159;28;20032;-65
2022/07/15 05:06:42;;;;;;;3.38;2.20;;;;;;;19.21;66.32;95946.50;5093084;28;20062;-65
2022/07/15 05:09:08;;;;;;;5.82;2.30;;;;;;;19.20;67.07;95936.84;5072580;28;20025;-66
2022/07/15 05:11:33;;;;;;;2.30;2.13;;;;;;;19.15;66.98;95940.06;5089875;28;20403;-65
2022/07/15 05:13:58;;;;;;;6.88;2.25;;;;;;;19.11;67.12;95930.81;5093862;28;20115;-65
2022/07/15 05:16:24;;;;;;;2.60;2.40;;;;;;;19.12;66.30;95932.44;5085782;28;20031;-65
2022/07/15 05:18:49;;;;;;;7.18;2.45;;;;;;;19.17;67.29;95938.88;5086957;28;20024;-65
2022/07/15 05:21:14;;;;;;;2.30;2.20;;;;;;;19.35;67.62;95937.63;5090684;28;20502;-66
2022/07/15 05:23:40;;;;;;;4.15;2.20;;;;;;;19.53;67.70;95939.81;5089493;28;20028;-65
2022/07/15 05:26:06;;;;;;;2.45;2.25;;;;;;;19.67;66.88;95939.91;5089913;28;20034;-65
2022/07/15 05:28:31;;;;;;;2.42;2.22;;;;;;;19.76;66.38;95936.09;5092150;28;20043;-66
2022/07/15 05:30:57;;;;;;;2.75;1.98;;;;;;;19.83;66.28;95939.63;5090175;28;20024;-65
2022/07/15 05:33:22;;;;;;;2.50;2.30;;;;;;;19.92;65.60;95943.03;5090936;28;20395;-64
2022/07/15 05:35:48;;;;;;;4.05;2.03;;;;;;;19.99;65.35;95943.06;5075919;28;20031;-65
2022/07/15 05:38:13;;;;;;;5.22;2.30;;;;;;;20.19;63.70;95948.53;5075310;28;20027;-65
2022/07/15 05:40:39;;;;;;;3.15;2.20;;;;;;;20.32;63.07;95948.63;5091861;28;20024;-65
2022/07/15 05:43:04;;;;;;;3.83;2.15;;;;;;;20.40;63.16;95936.94;5090244;28;20020;-65
2022/07/15 05:45:30;;;;;;;2.53;2.17;;;;;;;20.54;62.45;95947.69;5089134;28;20024;-65
2022/07/15 05:47:55;;;;;;;3.38;2.42;;;;;;;20.70;62.19;95946.53;5093823;28;20028;-65
2022/07/15 05:50:21;;;;;;;2.47;2.28;;;;;;;20.74;62.38;95948.59;5090386;28;20020;-65
2022/07/15 05:52:46;;;;;;;6.70;6.03;;;;;;;20.79;62.22;95941.84;5088590;28;20028;-65
2022/07/15 05:55:12;;;;;;;4.40;3.95;;;;;;;20.88;61.01;95951.38;5087070;28;20077;-65
2022/07/15 05:57:37;;;;;;;3.05;2.60;;;;;;;21.06;59.63;95948.13;5087829;28;20399;-65
2022/07/15 06:00:05;;;;;;;4.57;2.63;;;;;;;21.12;59.32;95951.84;5086390;28;20020;-66
2022/07/15 06:02:30;;;;;;;2.63;2.42;;;;;;;21.30;58.75;95948.56;5094351;28;20032;-65
2022/07/15 06:04:56;;;;;;;3.45;2.33;;;;;;;21.39;58.34;95947.38;5090622;28;20512;-64
2022/07/15 06:07:22;;;;;;;6.18;2.15;;;;;;;21.49;57.76;95948.81;5092299;28;20534;-66
2022/07/15 06:09:50;;;;;;;2.17;2.08;;;;;;;21.60;58.29;95949.03;5090886;28;20028;-66
2022/07/15 06:12:16;;;;;;;3.28;2.38;;;;;;;21.78;57.08;95939.56;5089307;28;20126;-66
2022/07/15 06:14:41;;;;;;;2.03;1.92;;;;;;;21.96;55.08;95944.28;5088482;28;20055;-66
2022/07/15 06:17:06;;;;;;;2.25;2.05;;;;;;;22.07;54.52;95945.53;5087876;28;20398;-65
2022/07/15 06:19:32;;;;;;;2.50;2.30;;;;;;;22.23;53.43;95944.28;5089891;28;20038;-65
2022/07/15 06:21:58;;;;;;;5.22;2.08;;;;;;;22.38;52.72;95945.88;5090714;28;20115;-64
2022/07/15 06:24:24;;;;;;;1.95;1.80;;;;;;;22.49;52.50;95939.06;5087497;28;20036;-64
2022/07/15 06:26:50;;;;;;;2.45;2.00;;;;;;;22.64;52.28;95936.13;5081768;28;20123;-64
2022/07/15 06:29:16;;;;;;;2.10;1.90;;;;;;;22.85;51.89;95935.00;5090691;28;20032;-64
2022/07/15 06:31:41;;;;;;;2.67;1.80;;;;;;;23.06;50.75;95935.72;5085174;28;20073;-67
2022/07/15 06:34:06;;;;;;;2.03;1.92;;;;;;;23.25;51.57;95933.97;5088277;28;20052;-66
2022/07/15 06:36:32;;;;;;;7.45;2.10;;;;;;;23.48;50.56;95935.28;5091000;28;20064;-66
2022/07/15 06:38:58;;;;;;;2.95;2.10;;;;;;;23.84;49.82;95945.31;5082141;28;20042;-66
2022/07/15 06:41:24;;;;;;;2.05;1.95;;;;;;;24.17;49.39;95936.16;5085576;28;20038;-66
2022/07/15 06:43:49;;;;;;;2.30;2.00;;;;;;;24.54;48.09;95938.06;5082860;28;20427;-66
2022/07/15 06:46:15;;;;;;;2.00;1.90;;;;;;;24.80;46.35;95933.41;5084498;28;20031;-66
2022/07/15 06:48:41;;;;;;;2.95;1.90;;;;;;;25.18;45.46;95934.16;5081218;28;20050;-66
2022/07/15 06:51:07;;;;;;;2.72;1.98;;;;;;;25.56;44.98;95938.41;5085859;28;20100;-66
2022/07/15 06:53:33;;;;;;;2.10;1.80;;;;;;;25.99;44.18;95935.63;5083111;28;20103;-66
2022/07/15 06:55:58;;;;;;;2.00;1.80;;;;;;;26.46;42.07;95932.94;5086879;28;20098;-66
2022/07/15 06:58:24;;;;;;;1.88;1.70;;;;;;;26.66;42.07;95936.31;5086591;28;20135;-66
2022/07/15 07:00:49;;;;;;;12.00;2.38;;;;;;;26.96;41.53;95932.59;5084262;28;20035;-66
2022/07/15 07:03:14;;;;;;;2.83;1.80;;;;;;;27.33;41.52;95936.78;5085706;28;20469;-66
2022/07/15 07:05:40;;;;;;;2.28;1.67;;;;;;;27.66;39.46;95930.63;5073569;28;20016;-66
2022/07/15 07:08:05;;;;;;;2.00;1.77;;;;;;;27.98;39.40;95927.38;5092132;28;20111;-66
2022/07/15 07:10:31;;;;;;;2.10;1.65;;;;;;;28.25;39.11;95924.00;5089132;28;20031;-66
2022/07/15 07:12:57;;;;;;;2.53;1.60;;;;;;;28.36;37.68;95922.25;5090380;28;20020;-67
2022/07/15 07:15:23;;;;;;;1.65;1.55;;;;;;;28.36;38.78;95924.13;5084895;28;20107;-67
2022/07/15 07:17:51;;;;;;;1.52;1.42;;;;;;;28.60;37.21;95933.63;5082510;28;20073;-66
2022/07/15 07:20:16;;;;;;;2.10;1.60;;;;;;;28.69;35.90;95920.47;5085688;28;20096;-67
2022/07/15 07:22:41;;;;;;;3.42;1.60;;;;;;;28.83;36.48;95920.94;5082396;28;20108;-66
2022/07/15 07:25:07;;;;;;;1.70;1.60;;;;;;;29.07;36.00;95919.84;5086113;28;20017;-66
2022/07/15 07:27:33;;;;;;;2.00;1.65;;;;;;;29.45;33.93;95916.19;5082206;28;20028;-64
2022/07/15 07:30:01;;;;;;;1.40;1.40;;;;;;;29.58;33.66;95920.38;5088760;28;20032;-65
2022/07/15 07:32:27;;;;;;;2.17;1.77;;;;;;;29.77;33.65;95919.19;5087202;28;20059;-67
2022/07/15 07:34:52;;;;;;;1.63;1.52;;;;;;;29.68;34.11;95918.84;5090439;28;20545;-67
2022/07/15 07:37:17;;;;;;;1.95;1.60;;;;;;;29.91;34.51;95911.41;5093056;28;20529;-67
2022/07/15 07:39:43;;;;;;;1.50;1.40;;;;;;;29.93;32.41;95912.78;5090784;28;20082;-66
2022/07/15 07:42:09;;;;;;;1.40;1.40;;;;;;;30.21;33.66;95910.00;5091626;28;20694;-66
2022/07/15 07:44:34;;;;;;;1.35;1.35;;;;;;;30.45;32.59;95910.41;5086769;28;20487;-67
2022/07/15 07:46:59;;;;;;;1.65;1.55;;;;;;;30.49;32.75;95911.50;5089119;28;20432;-67
2022/07/15 07:49:26;;;;;;;1.52;1.42;;;;;;;30.70;31.81;95909.72;5095336;28;20027;-66
2022/07/15 07:51:52;;;;;;;4.13;2.10;;;;;;;31.15;30.56;95901.97;5089304;28;20066;-66
2022/07/15 07:54:17;;;;;;;1.90;1.80;;;;;;;31.45;30.33;95899.59;5090765;28;20141;-68
2022/07/15 07:56:45;;;;;;;2.80;1.50;;;;;;;31.55;29.86;95901.53;5094936;28;20062;-65
2022/07/15 07:59:10;;;;;;;6.72;1.50;;;;;;;31.62;29.82;95910.22;5090186;28;20042;-66
2022/07/15 08:01:36;;;;;;;8.48;2.00;;;;;;;31.96;28.99;95903.44;5088549;28;20020;-67
2022/07/15 08:04:02;;;;;;;3.25;1.70;;;;;;;32.18;28.09;95900.41;5087413;28;20058;-66
2022/07/15 08:06:27;;;;;;;3.15;2.08;;;;;;;32.25;28.11;95900.09;5091487;28;20689;-67
2022/07/15 08:08:52;;;;;;;3.92;2.15;;;;;;;32.44;27.76;95898.44;5091662;28;20390;-66
2022/07/15 08:11:19;;;;;;;2.65;1.75;;;;;;;32.53;26.97;95906.84;5087840;28;20028;-65
2022/07/15 08:13:45;;;;;;;9.50;2.03;;;;;;;32.62;28.12;95898.13;5084490;28;20025;-66
2022/07/15 08:16:11;;;;;;;3.42;1.60;;;;;;;32.69;28.61;95904.88;5087816;28;20037;-66
2022/07/15 08:18:37;;;;;;;2.10;1.70;;;;;;;32.82;28.25;95899.94;5095866;28;20028;-66
2022/07/15 08:21:03;;;;;;;3.83;1.92;;;;;;;32.97;28.41;95899.06;5091249;28;20016;-66
2022/07/15 08:23:31;;;;;;;2.20;1.73;;;;;;;32.93;28.41;95892.56;5090897;28;20024;-65
2022/07/15 08:25:56;;;;;;;1.70;1.60;;;;;;;33.15;28.47;95906.59;5094302;28;20016;-66
2022/07/15 08:28:22;;;;;;;2.15;1.80;;;;;;;33.39;26.78;95900.44;5090883;28;20039;-65
2022/07/15 08:30:48;;;;;;;2.00;1.90;;;;;;;33.25;27.26;95899.44;5091696;28;20024;-65
2022/07/15 08:33:14;;;;;;;3.33;1.80;;;;;;;32.86;27.65;95896.38;5092210;28;20016;-65
2022/07/15 08:35:41;;;;;;;2.00;1.88;;;;;;;32.90;28.55;95901.28;5093840;28;20020;-66
2022/07/15 08:38:08;;;;;;;3.05;1.80;;;;;;;33.26;27.68;95901.06;5093059;28;20028;-65
2022/07/15 08:40:34;;;;;;;3.63;1.63;;;;;;;32.69;27.08;95893.97;5090073;28;20148;-66
2022/07/15 08:43:00;;;;;;;1.67;1.50;;;;;;;33.35;27.89;95899.38;5089348;28;20016;-68
2022/07/15 08:45:26;;;;;;;4.03;1.65;;;;;;;34.21;26.02;95897.34;5090576;28;20798;-67
2022/07/15 08:47:52;;;;;;;6.32;1.75;;;;;;;34.48;25.57;95899.50;5090487;28;20024;-68
2022/07/15 08:50:19;;;;;;;1.40;1.30;;;;;;;34.59;25.12;95902.97;5090325;28;20024;-69
2022/07/15 08:52:46;;;;;;;2.05;1.42;;;;;;;35.03;23.78;95892.84;5093028;28;20020;-66
2022/07/15 08:55:15;;;;;;;2.17;1.17;;;;;;;34.70;24.89;95892.72;5085101;28;20028;-66
2022/07/15 08:57:45;;;;;;;1.65;1.30;;;;;;;34.57;25.16;95884.09;5085119;28;20050;-67
2022/07/15 09:00:11;;;;;;;1.30;1.20;;;;;;;34.77;25.06;95884.16;5091431;28;20370;-67
2022/07/15 09:02:38;;;;;;;2.22;1.10;;;;;;;35.36;23.65;95881.97;5089057;28;20016;-67
2022/07/15 09:05:16;;;;;;;1.40;1.30;;;;;;;35.07;24.38;95891.16;5087144;28;20033;-67
2022/07/15 09:07:59;;;;;;;3.42;2.92;;;;;;;35.14;22.44;95877.91;5091380;28;20035;-67
2022/07/15 09:10:43;;;;;;;1.83;1.20;;;;;;;35.51;23.28;95882.84;5088733;28;20020;-66
2022/07/15 09:13:20;;;;;;;3.03;1.42;;;;;;;35.32;22.54;95878.22;5092258;28;20403;-66
2022/07/15 09:15:46;;;;;;;3.60;1.13;;;;;;;35.32;22.42;95880.13;5090117;28;20087;-67
2022/07/15 09:18:18;;;;;;;1.63;1.40;;;;;;;35.56;23.11;95877.31;5074534;28;20122;-66
2022/07/15 09:20:45;;;;;;;4.63;1.27;;;;;;;35.35;23.03;95874.88;5088143;28;20069;-67
2022/07/15 09:23:17;;;;;;;1.23;1.23;;;;;;;35.73;21.79;95875.97;5092115;28;20037;-67
2022/07/15 09:25:44;;;;;;;2.13;1.65;;;;;;;35.99;22.30;95873.56;5091543;28;20059;-67
2022/07/15 09:28:09;;;;;;;1.10;1.10;;;;;;;35.71;23.08;95868.03;5088647;28;20039;-67
2022/07/15 09:36:10;;;;;;;1.50;1.40;;;;;;;35.93;21.54;95867.38;5085538;28;20123;-67
2022/07/15 09:38:43;;;;;;;1.48;1.30;;;;;;;35.77;21.96;95866.81;5086413;28;20035;-68
2022/07/15 09:41:25;;;;;;;1.67;1.57;;;;;;;36.25;21.62;95871.19;5089692;28;20020;-65
2022/07/15 09:44:02;;;;;;;2.75;1.02;;;;;;;36.22;21.13;95858.13;5084191;28;20123;-67
2022/07/15 09:46:41;;;;;;;4.65;1.35;;;;;;;36.45;20.36;95863.69;5088189;28;20141;-66
2022/07/15 09:49:08;;;;;;;3.63;1.10;;;;;;;36.35;20.94;95861.13;5095001;28;20102;-67
2022/07/15 09:52:02;;;;;;;3.60;1.30;;;;;;;36.51;21.25;95858.94;5085572;28;20568;-66
2022/07/15 09:54:53;;;;;;;1.52;1.27;;;;;;;36.16;20.43;95853.84;5087773;28;20032;-66
2022/07/15 09:57:18;;;;;;;2.92;1.17;;;;;;;36.29;21.55;95854.97;5090625;28;20117;-67
2022/07/15 09:59:48;;;;;;;1.70;1.60;;;;;;;36.57;20.77;95857.72;5087415;28;20446;-66
2022/07/15 10:02:14;;;;;;;4.10;1.42;;;;;;;36.32;20.58;95850.78;5089871;28;20027;-66
2022/07/15 10:04:40;;;;;;;1.10;1.00;;;;;;;36.65;20.75;95850.72;5088731;28;20028;-68
2022/07/15 10:07:06;;;;;;;1.73;1.30;;;;;;;36.13;20.64;95848.97;5091710;28;20020;-68
2022/07/15 10:09:36;;;;;;;5.65;1.20;;;;;;;36.64;19.60;95851.84;5093049;28;20491;-68
2022/07/15 10:12:07;;;;;;;1.48;1.38;;;;;;;36.38;20.40;95849.59;5091151;28;20263;-69
2022/07/15 10:14:53;;;;;;;1.40;1.30;;;;;;;36.85;20.05;95852.19;5088547;28;20115;-68
2022/07/15 10:17:37;;;;;;;2.47;1.40;;;;;;;36.77;20.14;95840.00;5093373;28;20024;-68
2022/07/15 10:20:08;;;;;;;;;;;;;;;36.67;19.41;95843.00;5089177;28;20500;-68
2022/07/15 10:23:01;;;;;;;2.85;1.10;;;;;;;36.54;20.84;95837.22;5085269;28;19911;-68
2022/07/15 10:25:39;;;;;;;1.20;1.10;;;;;;;37.14;20.14;95831.84;5073531;28;20197;-68
2022/07/15 10:28:07;;;;;;;1.33;1.27;;;;;;;36.92;20.17;95835.31;5088929;28;20060;-70
2022/07/15 10:30:32;;;;;;;4.78;1.33;;;;;;;36.67;20.08;95835.56;5088441;28;20071;-70
2022/07/15 10:33:03;;;;;;;1.25;1.20;;;;;;;36.87;19.65;95833.50;5091059;28;20478;-72
2022/07/15 10:35:34;;;;;;;1.00;1.00;;;;;;;37.03;20.82;95835.94;5087836;28;20035;-70
2022/07/15 10:38:30;;;;;;;0.95;0.95;;;;;;;37.39;18.77;95838.63;5089387;28;20039;-70
2022/07/15 10:41:09;;;;;;;1.40;1.30;;;;;;;37.02;19.51;95835.09;5091742;28;20490;-71
2022/07/15 10:43:54;;;;;;;1.50;1.40;;;;;;;36.91;18.64;95841.94;5082829;28;20568;-72
2022/07/15 10:46:27;;;;;;;1.25;1.10;;;;;;;37.20;19.38;95832.50;5089437;28;20510;-73
2022/07/15 10:49:13;;;;;;;;;;;;;;;36.84;19.11;95837.69;5091026;28;20028;-71
2022/07/15 10:51:39;;;;;;;1.35;1.13;;;;;;;37.02;19.31;95837.84;5085787;28;20387;-70
2022/07/15 10:54:10;;;;;;;1.38;1.27;;;;;;;37.13;19.44;95836.50;5088337;28;20020;-68
2022/07/15 10:56:47;;;;;;;1.73;1.05;;;;;;;37.38;18.57;95831.53;5086636;28;20032;-68
2022/07/15 10:59:19;;;;;;;2.38;1.10;;;;;;;37.54;19.52;95825.69;5089982;28;20092;-67
2022/07/15 11:02:10;;;;;;;1.77;1.05;;;;;;;37.54;18.79;95825.69;5086891;28;20020;-67
2022/07/15 11:04:37;;;;;;;3.75;1.20;;;;;;;37.59;18.14;95825.53;5075033;28;20407;-69
2022/07/15 11:07:07;;;;;;;1.20;1.13;;;;;;;37.48;18.63;95822.22;5094954;28;20024;-68
2022/07/15 11:10:11;;;;;;;0.90;0.90;;;;;;;37.38;19.09;95819.75;5094035;28;20431;-68
2022/07/15 11:12:36;;;;;;;;;;;;;;;37.54;18.93;95807.25;5092472;28;20031;-65
2022/07/15 11:15:12;;;;;;;4.13;1.10;;;;;;;37.77;18.64;95811.91;5092292;28;19912;-69
2022/07/15 11:17:41;;;;;;;1.17;0.95;;;;;;;38.08;18.96;95808.34;5089627;28;20082;-65
2022/07/15 11:20:11;;;;;;;1.70;1.13;;;;;;;38.29;17.86;95808.59;5092481;28;20514;-66
2022/07/15 11:22:41;;;;;;;1.15;1.10;;;;;;;37.88;17.39;95809.72;5086304;28;20044;-67
2022/07/15 11:25:20;;;;;;;1.23;1.17;;;;;;;37.60;17.89;95804.41;5088776;28;20032;-66
2022/07/15 11:27:55;;;;;;;1.95;1.13;;;;;;;37.93;17.86;95804.91;5089211;28;20041;-66
2022/07/15 11:30:20;;;;;;;2.25;1.40;;;;;;;37.83;17.82;95802.41;5089480;28;20028;-66
2022/07/15 11:32:55;;;;;;;1.80;1.10;;;;;;;37.92;18.50;95803.28;5084248;28;20019;-66
2022/07/15 11:35:20;;;;;;;2.28;1.10;;;;;;;38.09;18.05;95799.00;5091159;28;20317;-67
2022/07/15 11:37:46;;;;;;;1.90;1.00;;;;;;;38.02;18.87;95795.91;5093262;28;20048;-67
2022/07/15 11:45:46;;;;;;;1.20;1.13;;;;;;;37.82;18.15;95793.38;5074085;28;20039;-66
2022/07/15 11:48:13;;;;;;;1.33;1.15;;;;;;;37.77;18.58;95793.50;5090243;28;20031;-66
2022/07/15 11:50:53;;;;;;;2.97;1.15;;;;;;;38.05;17.79;95778.78;5089871;28;20026;-66